createdAt,value
2016-12-14T22:19:17.900Z,1021.63
2016-12-14T22:19:27.896Z,1021.64
2016-12-14T22:19:37.889Z,1021.6
2016-12-14T22:19:47.881Z,1021.62
2016-12-14T22:19:57.876Z,1021.65
2016-12-14T22:20:07.872Z,1021.68
2016-12-14T22:20:17.864Z,1021.64
2016-12-14T22:20:27.860Z,1021.64
2016-12-14T22:20:37.854Z,1021.68
2016-12-14T22:20:47.846Z,1021.69
2016-12-14T22:20:57.839Z,1021.67
2016-12-14T22:21:07.833Z,1021.64
2016-12-14T22:21:17.829Z,1021.69
2016-12-14T22:21:27.824Z,1021.7
2016-12-14T22:21:37.815Z,1021.64
2016-12-14T22:21:47.813Z,1021.65
2016-12-14T22:21:57.804Z,1021.68
2016-12-14T22:22:07.799Z,1021.65
2016-12-14T22:22:17.793Z,1021.69
2016-12-14T22:22:27.802Z,1021.67
2016-12-14T22:22:37.886Z,1021.74
2016-12-14T22:22:47.775Z,1021.68
2016-12-14T22:22:57.769Z,1021.7
2016-12-14T22:23:07.776Z,1021.69
2016-12-14T22:23:17.755Z,1021.7
2016-12-14T22:23:27.751Z,1021.71
2016-12-14T22:23:37.746Z,1021.7
2016-12-14T22:23:47.737Z,1021.72
2016-12-14T22:23:57.732Z,1021.72
2016-12-14T22:24:07.724Z,1021.66
2016-12-14T22:24:17.717Z,1021.74
2016-12-14T22:24:27.713Z,1021.72
2016-12-14T22:24:37.705Z,1021.72
2016-12-14T22:24:47.701Z,1021.71
2016-12-14T22:24:57.695Z,1021.74
2016-12-14T22:25:07.688Z,1021.7
2016-12-14T22:25:17.684Z,1021.73
2016-12-14T22:25:27.679Z,1021.7
2016-12-14T22:25:37.671Z,1021.69
2016-12-14T22:25:47.665Z,1021.75
2016-12-14T22:25:57.658Z,1021.73
2016-12-14T22:26:07.653Z,1021.71
2016-12-14T22:26:17.656Z,1021.72
2016-12-14T22:26:27.640Z,1021.67
2016-12-14T22:26:37.635Z,1021.74
2016-12-14T22:26:47.630Z,1021.68
2016-12-14T22:26:57.623Z,1021.74
2016-12-14T22:27:07.617Z,1021.74
2016-12-14T22:27:17.611Z,1021.69
2016-12-14T22:27:27.604Z,1021.71
2016-12-14T22:27:37.599Z,1021.68
2016-12-14T22:27:47.591Z,1021.72
2016-12-14T22:27:57.588Z,1021.7
2016-12-14T22:28:07.582Z,1021.72
2016-12-14T22:28:17.572Z,1021.7
2016-12-14T22:28:27.566Z,1021.7
2016-12-14T22:28:37.561Z,1021.68
2016-12-14T22:28:47.555Z,1021.75
2016-12-14T22:28:57.550Z,1021.71
2016-12-14T22:29:07.542Z,1021.71
2016-12-14T22:29:17.540Z,1021.73
2016-12-14T22:29:27.533Z,1021.69
2016-12-14T22:29:37.526Z,1021.71
2016-12-14T22:29:47.518Z,1021.68
2016-12-14T22:29:57.514Z,1021.65
2016-12-14T22:30:07.508Z,1021.72
2016-12-14T22:30:17.500Z,1021.64
2016-12-14T22:30:27.495Z,1021.66
2016-12-14T22:30:37.488Z,1021.71
2016-12-14T22:30:47.483Z,1021.75
2016-12-14T22:30:57.478Z,1021.71
2016-12-14T22:31:07.494Z,1021.74
2016-12-14T22:31:17.465Z,1021.74
2016-12-14T22:31:27.460Z,1021.72
2016-12-14T22:31:37.454Z,1021.73
2016-12-14T22:31:47.447Z,1021.74
2016-12-14T22:31:57.440Z,1021.74
2016-12-14T22:32:07.435Z,1021.67
2016-12-14T22:32:17.429Z,1021.76
2016-12-14T22:32:27.424Z,1021.72
2016-12-14T22:32:37.417Z,1021.74
2016-12-14T22:32:47.409Z,1021.77
2016-12-14T22:32:57.405Z,1021.75
2016-12-14T22:33:07.399Z,1021.76
2016-12-14T22:33:17.392Z,1021.78
2016-12-14T22:33:27.386Z,1021.74
2016-12-14T22:33:37.394Z,1021.77
2016-12-14T22:33:47.375Z,1021.72
2016-12-14T22:33:57.367Z,1021.74
2016-12-14T22:34:07.361Z,1021.73
2016-12-14T22:34:17.356Z,1021.78
2016-12-14T22:34:27.348Z,1021.75
2016-12-14T22:34:37.343Z,1021.71
2016-12-14T22:34:47.338Z,1021.74
2016-12-14T22:34:57.332Z,1021.76
2016-12-14T22:35:07.326Z,1021.75
2016-12-14T22:35:17.319Z,1021.78
2016-12-14T22:35:27.314Z,1021.75
2016-12-14T22:35:37.319Z,1021.73
2016-12-14T22:35:47.301Z,1021.75
2016-12-14T22:35:57.296Z,1021.74
2016-12-14T22:36:07.291Z,1021.75
2016-12-14T22:36:17.283Z,1021.79
2016-12-14T22:36:27.276Z,1021.75
2016-12-14T22:36:37.269Z,1021.73
2016-12-14T22:36:47.265Z,1021.7
2016-12-14T22:36:57.259Z,1021.75
2016-12-14T22:37:07.253Z,1021.73
2016-12-14T22:37:17.246Z,1021.71
2016-12-14T22:37:27.242Z,1021.75
2016-12-14T22:37:37.236Z,1021.73
2016-12-14T22:37:47.231Z,1021.72
2016-12-14T22:37:57.221Z,1021.73
2016-12-14T22:38:07.216Z,1021.72
2016-12-14T22:38:17.212Z,1021.72
2016-12-14T22:38:27.204Z,1021.73
2016-12-14T22:38:37.201Z,1021.71
2016-12-14T22:38:47.191Z,1021.74
2016-12-14T22:38:57.184Z,1021.73
2016-12-14T22:39:07.181Z,1021.73
2016-12-14T22:39:17.172Z,1021.76
2016-12-14T22:39:27.184Z,1021.76
2016-12-14T22:39:37.167Z,1021.75
2016-12-14T22:39:47.155Z,1021.77
2016-12-14T22:39:57.150Z,1021.75
2016-12-14T22:40:07.144Z,1021.73
2016-12-14T22:40:17.139Z,1021.78
2016-12-14T22:40:27.132Z,1021.77
2016-12-14T22:40:37.123Z,1021.73
2016-12-14T22:40:47.120Z,1021.76
2016-12-14T22:40:57.114Z,1021.75
2016-12-14T22:41:07.108Z,1021.74
2016-12-14T22:41:17.101Z,1021.74
2016-12-14T22:41:27.095Z,1021.78
2016-12-14T22:41:37.088Z,1021.79
2016-12-14T22:41:47.084Z,1021.72
2016-12-14T22:41:57.076Z,1021.77
2016-12-14T22:42:07.406Z,1021.78
2016-12-14T22:42:17.067Z,1021.74
2016-12-14T22:42:27.058Z,1021.75
2016-12-14T22:42:37.054Z,1021.78
2016-12-14T22:42:47.047Z,1021.74
2016-12-14T22:42:57.040Z,1021.77
2016-12-14T22:43:07.047Z,1021.76
2016-12-14T22:43:17.027Z,1021.72
2016-12-14T22:43:27.020Z,1021.77
2016-12-14T22:43:37.016Z,1021.72
2016-12-14T22:43:47.027Z,1021.8
2016-12-14T22:43:57.005Z,1021.79
2016-12-14T22:44:06.999Z,1021.74
2016-12-14T22:44:16.990Z,1021.76
2016-12-14T22:44:26.986Z,1021.76
2016-12-14T22:44:36.980Z,1021.73
2016-12-14T22:44:46.973Z,1021.79
2016-12-14T22:44:56.967Z,1021.7
2016-12-14T22:45:06.961Z,1021.69
2016-12-14T22:45:16.972Z,1021.74
2016-12-14T22:45:26.951Z,1021.71
2016-12-14T22:45:36.944Z,1021.77
2016-12-14T22:45:46.936Z,1021.72
2016-12-14T22:45:56.932Z,1021.75
2016-12-14T22:46:06.925Z,1021.73
2016-12-14T22:46:16.918Z,1021.72
2016-12-14T22:46:26.913Z,1021.71
2016-12-14T22:46:36.908Z,1021.78
2016-12-14T22:46:46.899Z,1021.74
2016-12-14T22:46:56.894Z,1021.71
2016-12-14T22:47:06.890Z,1021.74
2016-12-14T22:47:16.884Z,1021.73
2016-12-14T22:47:26.876Z,1021.72
2016-12-14T22:47:36.870Z,1021.72
2016-12-14T22:47:46.864Z,1021.77
2016-12-14T22:47:56.859Z,1021.75
2016-12-14T22:48:06.853Z,1021.77
2016-12-14T22:48:16.846Z,1021.73
2016-12-14T22:48:26.840Z,1021.73
2016-12-14T22:48:36.834Z,1021.71
2016-12-14T22:48:46.826Z,1021.75
2016-12-14T22:48:56.823Z,1021.7
2016-12-14T22:49:06.819Z,1021.7
2016-12-14T22:49:16.809Z,1021.71
2016-12-14T22:49:26.803Z,1021.72
2016-12-14T22:49:36.797Z,1021.71
2016-12-14T22:49:46.793Z,1021.75
2016-12-14T22:49:56.784Z,1021.75
2016-12-14T22:50:06.780Z,1021.73
2016-12-14T22:50:16.773Z,1021.72
2016-12-14T22:50:26.768Z,1021.74
2016-12-14T22:50:36.761Z,1021.74
2016-12-14T22:50:46.755Z,1021.73
2016-12-14T22:50:56.749Z,1021.73
2016-12-14T22:51:06.755Z,1021.65
2016-12-14T22:51:16.741Z,1021.71
2016-12-14T22:51:26.729Z,1021.77
2016-12-14T22:51:36.724Z,1021.7
2016-12-14T22:51:46.718Z,1021.68
2016-12-14T22:51:56.711Z,1021.73
2016-12-14T22:52:06.705Z,1021.7
2016-12-14T22:52:16.700Z,1021.77
2016-12-14T22:52:26.694Z,1021.68
2016-12-14T22:52:36.689Z,1021.73
2016-12-14T22:52:46.696Z,1021.73
2016-12-14T22:52:56.675Z,1021.76
2016-12-14T22:53:06.670Z,1021.77
2016-12-14T22:53:16.665Z,1021.74
2016-12-14T22:53:26.658Z,1021.77
2016-12-14T22:53:36.654Z,1021.73
2016-12-14T22:53:46.648Z,1021.76
2016-12-14T22:53:56.638Z,1021.74
2016-12-14T22:54:06.634Z,1021.76
2016-12-14T22:54:16.628Z,1021.8
2016-12-14T22:54:26.620Z,1021.77
2016-12-14T22:54:36.615Z,1021.7
2016-12-14T22:54:46.609Z,1021.76
2016-12-14T22:54:56.603Z,1021.77
2016-12-14T22:55:06.598Z,1021.7
2016-12-14T22:55:16.592Z,1021.72
2016-12-14T22:55:26.585Z,1021.82
2016-12-14T22:55:36.578Z,1021.8
2016-12-14T22:55:46.574Z,1021.78
2016-12-14T22:55:56.570Z,1021.79
2016-12-14T22:56:06.563Z,1021.74
2016-12-14T22:56:16.555Z,1021.78
2016-12-14T22:56:26.883Z,1021.75
2016-12-14T22:56:36.544Z,1021.75
2016-12-14T22:56:46.537Z,1021.76
2016-12-14T22:56:56.531Z,1021.74
2016-12-14T22:57:06.524Z,1021.8
2016-12-14T22:57:16.518Z,1021.76
2016-12-14T22:57:26.512Z,1021.77
2016-12-14T22:57:36.506Z,1021.77
2016-12-14T22:57:46.501Z,1021.75
2016-12-14T22:57:56.495Z,1021.73
2016-12-14T22:58:06.489Z,1021.77
2016-12-14T22:58:16.482Z,1021.71
2016-12-14T22:58:26.475Z,1021.75
2016-12-14T22:58:36.471Z,1021.81
2016-12-14T22:58:46.465Z,1021.8
2016-12-14T22:58:56.458Z,1021.78
2016-12-14T22:59:06.452Z,1021.8
2016-12-14T22:59:16.445Z,1021.77
2016-12-14T22:59:26.455Z,1021.77
2016-12-14T22:59:36.433Z,1021.78
2016-12-14T22:59:46.427Z,1021.77
2016-12-14T22:59:56.422Z,1021.77
2016-12-14T23:00:06.416Z,1021.76
2016-12-14T23:00:16.410Z,1021.82
2016-12-14T23:00:26.403Z,1021.75
2016-12-14T23:00:36.398Z,1021.82
2016-12-14T23:00:46.389Z,1021.75
2016-12-14T23:00:56.386Z,1021.81
2016-12-14T23:01:06.378Z,1021.76
2016-12-14T23:01:16.372Z,1021.78
2016-12-14T23:01:26.368Z,1021.8
2016-12-14T23:01:36.359Z,1021.79
2016-12-14T23:01:46.355Z,1021.8
2016-12-14T23:01:56.350Z,1021.81
2016-12-14T23:02:06.341Z,1021.79
2016-12-14T23:02:16.336Z,1021.79
2016-12-14T23:02:26.433Z,1021.8
2016-12-14T23:02:36.323Z,1021.84
2016-12-14T23:02:46.318Z,1021.81
2016-12-14T23:02:56.312Z,1021.82
2016-12-14T23:03:06.307Z,1021.8
2016-12-14T23:03:16.300Z,1021.81
2016-12-14T23:03:26.295Z,1021.84
2016-12-14T23:03:36.287Z,1021.84
2016-12-14T23:03:46.282Z,1021.81
2016-12-14T23:03:56.277Z,1021.79
2016-12-14T23:04:06.269Z,1021.83
2016-12-14T23:04:16.264Z,1021.82
2016-12-14T23:04:26.258Z,1021.8
2016-12-14T23:04:36.250Z,1021.74
2016-12-14T23:04:46.247Z,1021.79
2016-12-14T23:04:56.239Z,1021.79
2016-12-14T23:05:06.233Z,1021.85
2016-12-14T23:05:16.226Z,1021.76
2016-12-14T23:05:26.221Z,1021.74
2016-12-14T23:05:36.213Z,1021.79
2016-12-14T23:05:46.209Z,1021.77
2016-12-14T23:05:56.202Z,1021.82
2016-12-14T23:06:06.197Z,1021.76
2016-12-14T23:06:16.191Z,1021.81
2016-12-14T23:06:26.182Z,1021.82
2016-12-14T23:06:36.176Z,1021.81
2016-12-14T23:06:46.172Z,1021.76
2016-12-14T23:06:56.168Z,1021.73
2016-12-14T23:07:06.159Z,1021.77
2016-12-14T23:07:16.153Z,1021.79
2016-12-14T23:07:26.149Z,1021.76
2016-12-14T23:07:36.143Z,1021.79
2016-12-14T23:07:46.137Z,1021.8
2016-12-14T23:07:56.130Z,1021.74
2016-12-14T23:08:06.126Z,1021.77
2016-12-14T23:08:16.117Z,1021.76
2016-12-14T23:08:26.112Z,1021.74
2016-12-14T23:08:36.105Z,1021.75
2016-12-14T23:08:46.100Z,1021.79
2016-12-14T23:08:56.092Z,1021.69
2016-12-14T23:09:06.088Z,1021.72
2016-12-14T23:09:16.082Z,1021.72
2016-12-14T23:09:26.075Z,1021.75
2016-12-14T23:09:36.068Z,1021.77
2016-12-14T23:09:46.065Z,1021.69
2016-12-14T23:09:56.056Z,1021.72
2016-12-14T23:10:06.053Z,1021.74
2016-12-14T23:10:16.056Z,1021.72
2016-12-14T23:10:26.038Z,1021.74
2016-12-14T23:10:36.032Z,1021.76
2016-12-14T23:10:46.028Z,1021.73
2016-12-14T23:10:56.021Z,1021.69
2016-12-14T23:11:06.013Z,1021.68
2016-12-14T23:11:16.006Z,1021.72
2016-12-14T23:11:26.002Z,1021.73
2016-12-14T23:11:35.997Z,1021.7
2016-12-14T23:11:45.987Z,1021.68
2016-12-14T23:11:55.984Z,1021.7
2016-12-14T23:12:05.977Z,1021.73
2016-12-14T23:12:15.972Z,1021.73
2016-12-14T23:12:25.969Z,1021.68
2016-12-14T23:12:35.959Z,1021.73
2016-12-14T23:12:45.953Z,1021.65
2016-12-14T23:12:55.947Z,1021.66
2016-12-14T23:13:05.942Z,1021.66
2016-12-14T23:13:15.935Z,1021.69
2016-12-14T23:13:25.928Z,1021.7
2016-12-14T23:13:35.923Z,1021.68
2016-12-14T23:13:45.917Z,1021.68
2016-12-14T23:13:55.911Z,1021.64
2016-12-14T23:14:05.905Z,1021.7
2016-12-14T23:14:15.899Z,1021.69
2016-12-14T23:14:25.894Z,1021.7
2016-12-14T23:14:35.887Z,1021.71
2016-12-14T23:14:45.880Z,1021.68
2016-12-14T23:14:55.875Z,1021.67
2016-12-14T23:15:05.870Z,1021.71
2016-12-14T23:15:15.861Z,1021.7
2016-12-14T23:15:25.858Z,1021.7
2016-12-14T23:15:35.852Z,1021.65
2016-12-14T23:15:45.842Z,1021.67
2016-12-14T23:15:55.837Z,1021.73
2016-12-14T23:16:05.834Z,1021.73
2016-12-14T23:16:15.825Z,1021.71
2016-12-14T23:16:25.820Z,1021.68
2016-12-14T23:16:35.815Z,1021.68
2016-12-14T23:16:45.808Z,1021.71
2016-12-14T23:16:55.803Z,1021.67
2016-12-14T23:17:05.795Z,1021.75
2016-12-14T23:17:15.789Z,1021.65
2016-12-14T23:17:25.784Z,1021.67
2016-12-14T23:17:35.788Z,1021.71
2016-12-14T23:17:45.773Z,1021.67
2016-12-14T23:17:55.765Z,1021.66
2016-12-14T23:18:05.762Z,1021.68
2016-12-14T23:18:15.752Z,1021.68
2016-12-14T23:18:25.748Z,1021.67
2016-12-14T23:18:35.741Z,1021.73
2016-12-14T23:18:45.735Z,1021.69
2016-12-14T23:18:55.730Z,1021.68
2016-12-14T23:19:05.722Z,1021.62
2016-12-14T23:19:15.717Z,1021.67
2016-12-14T23:19:25.710Z,1021.67
2016-12-14T23:19:35.807Z,1021.66
2016-12-14T23:19:45.697Z,1021.71
2016-12-14T23:19:55.691Z,1021.71
2016-12-14T23:20:05.685Z,1021.65
2016-12-14T23:20:15.679Z,1021.68
2016-12-14T23:20:25.674Z,1021.69
2016-12-14T23:20:35.667Z,1021.69
2016-12-14T23:20:45.662Z,1021.69
2016-12-14T23:20:55.763Z,1021.74
2016-12-14T23:21:05.650Z,1021.71
2016-12-14T23:21:15.645Z,1021.67
2016-12-14T23:21:25.638Z,1021.65
2016-12-14T23:21:35.632Z,1021.66
2016-12-14T23:21:45.628Z,1021.73
2016-12-14T23:21:55.620Z,1021.67
2016-12-14T23:22:05.613Z,1021.73
2016-12-14T23:22:15.608Z,1021.75
2016-12-14T23:22:25.601Z,1021.68
2016-12-14T23:22:35.596Z,1021.73
2016-12-14T23:22:45.590Z,1021.68
2016-12-14T23:22:55.583Z,1021.75
2016-12-14T23:23:05.577Z,1021.75
2016-12-14T23:23:15.573Z,1021.67
2016-12-14T23:23:25.565Z,1021.74
2016-12-14T23:23:35.559Z,1021.68
2016-12-14T23:23:45.554Z,1021.7
2016-12-14T23:23:55.546Z,1021.68
2016-12-14T23:24:05.541Z,1021.67
2016-12-14T23:24:15.533Z,1021.68
2016-12-14T23:24:25.530Z,1021.72
2016-12-14T23:24:35.521Z,1021.67
2016-12-14T23:24:45.517Z,1021.64
2016-12-14T23:24:55.510Z,1021.69
2016-12-14T23:25:05.503Z,1021.7
2016-12-14T23:25:15.497Z,1021.66
2016-12-14T23:25:25.494Z,1021.63
2016-12-14T23:25:35.484Z,1021.66
2016-12-14T23:25:45.480Z,1021.64
2016-12-14T23:25:55.807Z,1021.64
2016-12-14T23:26:05.468Z,1021.71
2016-12-14T23:26:15.461Z,1021.67
2016-12-14T23:26:25.457Z,1021.64
2016-12-14T23:26:35.449Z,1021.67
2016-12-14T23:26:45.446Z,1021.69
2016-12-14T23:26:55.439Z,1021.73
2016-12-14T23:27:05.431Z,1021.71
2016-12-14T23:27:15.426Z,1021.69
2016-12-14T23:27:25.418Z,1021.73
2016-12-14T23:27:35.415Z,1021.67
2016-12-14T23:27:45.408Z,1021.65
2016-12-14T23:27:55.401Z,1021.7
2016-12-14T23:28:05.397Z,1021.72
2016-12-14T23:28:15.387Z,1021.65
2016-12-14T23:28:25.384Z,1021.7
2016-12-14T23:28:35.377Z,1021.68
2016-12-14T23:28:45.372Z,1021.68
2016-12-14T23:28:55.366Z,1021.65
2016-12-14T23:29:05.462Z,1021.63
2016-12-14T23:29:15.352Z,1021.69
2016-12-14T23:29:25.347Z,1021.71
2016-12-14T23:29:35.339Z,1021.67
2016-12-14T23:29:45.336Z,1021.69
2016-12-14T23:29:55.337Z,1021.7
2016-12-14T23:30:05.322Z,1021.66
2016-12-14T23:30:15.318Z,1021.77
2016-12-14T23:30:25.311Z,1021.7
2016-12-14T23:30:35.304Z,1021.7
2016-12-14T23:30:45.298Z,1021.69
2016-12-14T23:30:55.626Z,1021.73
2016-12-14T23:31:05.286Z,1021.74
2016-12-14T23:31:15.281Z,1021.71
2016-12-14T23:31:25.401Z,1021.73
2016-12-14T23:31:35.269Z,1021.71
2016-12-14T23:31:45.261Z,1021.78
2016-12-14T23:31:55.256Z,1021.76
2016-12-14T23:32:05.248Z,1021.75
2016-12-14T23:32:15.242Z,1021.73
2016-12-14T23:32:25.238Z,1021.73
2016-12-14T23:32:35.232Z,1021.74
2016-12-14T23:32:45.226Z,1021.74
2016-12-14T23:32:55.220Z,1021.75
2016-12-14T23:33:05.214Z,1021.73
2016-12-14T23:33:15.209Z,1021.71
2016-12-14T23:33:25.200Z,1021.72
2016-12-14T23:33:35.195Z,1021.76
2016-12-14T23:33:45.190Z,1021.73
2016-12-14T23:33:55.184Z,1021.78
2016-12-14T23:34:05.177Z,1021.79
2016-12-14T23:34:15.172Z,1021.76
2016-12-14T23:34:25.165Z,1021.72
2016-12-14T23:34:35.159Z,1021.75
2016-12-14T23:34:45.152Z,1021.72
2016-12-14T23:34:55.146Z,1021.77
2016-12-14T23:35:05.141Z,1021.77
2016-12-14T23:35:15.132Z,1021.76
2016-12-14T23:35:25.128Z,1021.75
2016-12-14T23:35:35.124Z,1021.76
2016-12-14T23:35:45.114Z,1021.76
2016-12-14T23:35:55.110Z,1021.74
2016-12-14T23:36:05.105Z,1021.75
2016-12-14T23:36:15.097Z,1021.75
2016-12-14T23:36:25.091Z,1021.72
2016-12-14T23:36:35.087Z,1021.67
2016-12-14T23:36:45.102Z,1021.76
2016-12-14T23:36:55.074Z,1021.72
2016-12-14T23:37:05.066Z,1021.73
2016-12-14T23:37:15.063Z,1021.72
2016-12-14T23:37:25.056Z,1021.74
2016-12-14T23:37:35.049Z,1021.73
2016-12-14T23:37:45.043Z,1021.71
2016-12-14T23:37:55.037Z,1021.74
2016-12-14T23:38:05.031Z,1021.73
2016-12-14T23:38:15.027Z,1021.68
2016-12-14T23:38:25.019Z,1021.71
2016-12-14T23:38:35.347Z,1021.76
2016-12-14T23:38:45.008Z,1021.72
2016-12-14T23:38:54.999Z,1021.7
2016-12-14T23:39:04.995Z,1021.71
2016-12-14T23:39:14.989Z,1021.72
2016-12-14T23:39:24.982Z,1021.71
2016-12-14T23:39:34.978Z,1021.69
2016-12-14T23:39:44.970Z,1021.7
2016-12-14T23:39:54.965Z,1021.7
2016-12-14T23:40:04.958Z,1021.7
2016-12-14T23:40:14.952Z,1021.67
2016-12-14T23:40:24.945Z,1021.67
2016-12-14T23:40:34.941Z,1021.66
2016-12-14T23:40:44.935Z,1021.69
2016-12-14T23:40:54.928Z,1021.67
2016-12-14T23:41:04.921Z,1021.68
2016-12-14T23:41:14.935Z,1021.73
2016-12-14T23:41:24.909Z,1021.75
2016-12-14T23:41:34.903Z,1021.69
2016-12-14T23:41:44.899Z,1021.67
2016-12-14T23:41:54.890Z,1021.65
2016-12-14T23:42:04.885Z,1021.7
2016-12-14T23:42:14.880Z,1021.71
2016-12-14T23:42:24.872Z,1021.67
2016-12-14T23:42:34.869Z,1021.69
2016-12-14T23:42:44.861Z,1021.7
2016-12-14T23:42:54.854Z,1021.7
2016-12-14T23:43:04.848Z,1021.7
2016-12-14T23:43:14.843Z,1021.72
2016-12-14T23:43:24.838Z,1021.72
2016-12-14T23:43:34.831Z,1021.62
2016-12-14T23:43:44.824Z,1021.7
2016-12-14T23:43:54.818Z,1021.75
2016-12-14T23:44:04.815Z,1021.67
2016-12-14T23:44:14.805Z,1021.7
2016-12-14T23:44:24.802Z,1021.68
2016-12-14T23:44:34.794Z,1021.73
2016-12-14T23:44:44.791Z,1021.66
2016-12-14T23:44:54.802Z,1021.65
2016-12-14T23:45:04.778Z,1021.74
2016-12-14T23:45:14.771Z,1021.68
2016-12-14T23:45:24.766Z,1021.68
2016-12-14T23:45:34.759Z,1021.64
2016-12-14T23:45:44.754Z,1021.67
2016-12-14T23:45:54.745Z,1021.69
2016-12-14T23:46:04.753Z,1021.71
2016-12-14T23:46:14.736Z,1021.65
2016-12-14T23:46:24.728Z,1021.65
2016-12-14T23:46:34.723Z,1021.67
2016-12-14T23:46:44.716Z,1021.66
2016-12-14T23:46:54.711Z,1021.74
2016-12-14T23:47:04.704Z,1021.7
2016-12-14T23:47:14.697Z,1021.67
2016-12-14T23:47:24.691Z,1021.68
2016-12-14T23:47:34.686Z,1021.63
2016-12-14T23:47:44.679Z,1021.64
2016-12-14T23:47:54.675Z,1021.68
2016-12-14T23:48:04.668Z,1021.72
2016-12-14T23:48:14.660Z,1021.69
2016-12-14T23:48:24.659Z,1021.64
2016-12-14T23:48:34.649Z,1021.69
2016-12-14T23:48:44.643Z,1021.62
2016-12-14T23:48:54.638Z,1021.65
2016-12-14T23:49:04.630Z,1021.66
2016-12-14T23:49:14.625Z,1021.69
2016-12-14T23:49:24.620Z,1021.7
2016-12-14T23:49:34.612Z,1021.72
2016-12-14T23:49:44.607Z,1021.68
2016-12-14T23:49:54.601Z,1021.74
2016-12-14T23:50:04.597Z,1021.7
2016-12-14T23:50:14.590Z,1021.72
2016-12-14T23:50:24.582Z,1021.71
2016-12-14T23:50:34.588Z,1021.72
2016-12-14T23:50:44.571Z,1021.74
2016-12-14T23:50:54.566Z,1021.69
2016-12-14T23:51:04.557Z,1021.71
2016-12-14T23:51:14.553Z,1021.73
2016-12-14T23:51:24.546Z,1021.77
2016-12-14T23:51:34.540Z,1021.7
2016-12-14T23:51:44.533Z,1021.68
2016-12-14T23:51:54.529Z,1021.7
2016-12-14T23:52:04.523Z,1021.7
2016-12-14T23:52:14.515Z,1021.7
2016-12-14T23:52:24.510Z,1021.73
2016-12-14T23:52:34.502Z,1021.74
2016-12-14T23:52:44.498Z,1021.74
2016-12-14T23:52:54.493Z,1021.74
2016-12-14T23:53:04.820Z,1021.72
2016-12-14T23:53:14.478Z,1021.73
2016-12-14T23:53:24.475Z,1021.73
2016-12-14T23:53:34.467Z,1021.76
2016-12-14T23:53:44.460Z,1021.72
2016-12-14T23:53:54.453Z,1021.77
2016-12-14T23:54:04.448Z,1021.75
2016-12-14T23:54:14.444Z,1021.74
2016-12-14T23:54:24.434Z,1021.75
2016-12-14T23:54:34.430Z,1021.72
2016-12-14T23:54:44.426Z,1021.76
2016-12-14T23:54:54.418Z,1021.8
2016-12-14T23:55:04.412Z,1021.7
2016-12-14T23:55:14.406Z,1021.71
2016-12-14T23:55:24.399Z,1021.75
2016-12-14T23:55:34.395Z,1021.7
2016-12-14T23:55:44.389Z,1021.7
2016-12-14T23:55:54.381Z,1021.69
2016-12-14T23:56:04.377Z,1021.7
2016-12-14T23:56:14.370Z,1021.76
2016-12-14T23:56:24.365Z,1021.73
2016-12-14T23:56:34.358Z,1021.72
2016-12-14T23:56:44.352Z,1021.74
2016-12-14T23:56:54.347Z,1021.72
2016-12-14T23:57:04.342Z,1021.71
2016-12-14T23:57:14.335Z,1021.76
2016-12-14T23:57:24.326Z,1021.74
2016-12-14T23:57:34.321Z,1021.72
2016-12-14T23:57:44.315Z,1021.71
2016-12-14T23:57:54.309Z,1021.7
2016-12-14T23:58:04.304Z,1021.72
2016-12-14T23:58:14.298Z,1021.71
2016-12-14T23:58:24.291Z,1021.71
2016-12-14T23:58:34.295Z,1021.72
2016-12-14T23:58:44.280Z,1021.7
2016-12-14T23:58:54.272Z,1021.72
2016-12-14T23:59:04.267Z,1021.68
2016-12-14T23:59:14.264Z,1021.69
2016-12-14T23:59:24.256Z,1021.7
2016-12-14T23:59:34.251Z,1021.74
2016-12-14T23:59:44.243Z,1021.74
2016-12-14T23:59:54.236Z,1021.69
